sensor_id;sensor_type;location;lat;lon;timestamp;P1;durP1;ratioP1;P2;durP2;ratioP2
28545;SDS011;15749;49.606;8.738;2022-10-03T00:00:56;8.47;;;6.00;;
28545;SDS011;15749;49.606;8.738;2022-10-03T00:04:05;7.20;;;6.00;;
28545;SDS011;15749;49.606;8.738;2022-10-03T00:07:14;5.90;;;5.17;;
28545;SDS011;15749;49.606;8.738;2022-10-03T00:10:21;5.10;;;4.60;;
28545;SDS011;15749;49.606;8.738;2022-10-03T00:13:19;5.83;;;5.23;;
28545;SDS011;15749;49.606;8.738;2022-10-03T00:16:13;5.73;;;4.87;;
28545;SDS011;15749;49.606;8.738;2022-10-03T00:19:10;10.63;;;5.47;;
28545;SDS011;15749;49.606;8.738;2022-10-03T00:22:12;5.00;;;4.50;;
28545;SDS011;15749;49.606;8.738;2022-10-03T00:25:23;5.30;;;4.77;;
28545;SDS011;15749;49.606;8.738;2022-10-03T00:28:22;6.40;;;5.27;;
28545;SDS011;15749;49.606;8.738;2022-10-03T00:31:36;6.73;;;5.60;;
28545;SDS011;15749;49.606;8.738;2022-10-03T00:34:35;5.67;;;5.07;;
28545;SDS011;15749;49.606;8.738;2022-10-03T00:37:38;9.97;;;6.27;;
28545;SDS011;15749;49.606;8.738;2022-10-03T00:40:38;9.57;;;6.83;;
28545;SDS011;15749;49.606;8.738;2022-10-03T00:44:24;6.40;;;5.60;;
28545;SDS011;15749;49.606;8.738;2022-10-03T00:51:27;7.80;;;6.13;;
28545;SDS011;15749;49.606;8.738;2022-10-03T00:54:37;6.40;;;5.80;;
28545;SDS011;15749;49.606;8.738;2022-10-03T00:57:41;5.63;;;5.00;;
28545;SDS011;15749;49.606;8.738;2022-10-03T01:00:48;9.87;;;6.63;;
28545;SDS011;15749;49.606;8.738;2022-10-03T01:03:40;8.67;;;6.27;;
28545;SDS011;15749;49.606;8.738;2022-10-03T01:06:42;6.67;;;5.40;;
28545;SDS011;15749;49.606;8.738;2022-10-03T01:09:50;9.13;;;7.33;;
28545;SDS011;15749;49.606;8.738;2022-10-03T01:12:55;6.33;;;5.67;;
28545;SDS011;15749;49.606;8.738;2022-10-03T01:15:59;5.67;;;5.10;;
28545;SDS011;15749;49.606;8.738;2022-10-03T01:19:02;5.57;;;4.60;;
28545;SDS011;15749;49.606;8.738;2022-10-03T01:22:23;30.63;;;6.43;;
28545;SDS011;15749;49.606;8.738;2022-10-03T01:25:45;6.97;;;5.60;;
28545;SDS011;15749;49.606;8.738;2022-10-03T01:28:41;13.60;;;6.17;;
28545;SDS011;15749;49.606;8.738;2022-10-03T01:31:53;9.30;;;5.43;;
28545;SDS011;15749;49.606;8.738;2022-10-03T01:34:51;5.90;;;4.70;;
28545;SDS011;15749;49.606;8.738;2022-10-03T01:37:54;5.70;;;5.10;;
28545;SDS011;15749;49.606;8.738;2022-10-03T01:40:52;22.17;;;5.83;;
28545;SDS011;15749;49.606;8.738;2022-10-03T01:43:49;5.70;;;4.97;;
28545;SDS011;15749;49.606;8.738;2022-10-03T01:46:44;4.53;;;4.00;;
28545;SDS011;15749;49.606;8.738;2022-10-03T01:49:40;7.80;;;4.57;;
28545;SDS011;15749;49.606;8.738;2022-10-03T01:52:36;5.13;;;4.70;;
28545;SDS011;15749;49.606;8.738;2022-10-03T01:55:36;4.40;;;4.00;;
28545;SDS011;15749;49.606;8.738;2022-10-03T01:58:40;17.97;;;5.10;;
28545;SDS011;15749;49.606;8.738;2022-10-03T02:01:46;10.87;;;4.90;;
28545;SDS011;15749;49.606;8.738;2022-10-03T02:04:40;17.80;;;5.70;;
28545;SDS011;15749;49.606;8.738;2022-10-03T02:07:39;11.57;;;5.37;;
28545;SDS011;15749;49.606;8.738;2022-10-03T02:10:40;14.23;;;4.73;;
28545;SDS011;15749;49.606;8.738;2022-10-03T02:13:38;5.10;;;4.37;;
28545;SDS011;15749;49.606;8.738;2022-10-03T02:16:35;8.60;;;4.13;;
28545;SDS011;15749;49.606;8.738;2022-10-03T02:19:29;7.10;;;3.70;;
28545;SDS011;15749;49.606;8.738;2022-10-03T02:22:28;7.13;;;4.33;;
28545;SDS011;15749;49.606;8.738;2022-10-03T02:25:25;6.57;;;3.97;;
28545;SDS011;15749;49.606;8.738;2022-10-03T02:28:29;13.57;;;5.00;;
28545;SDS011;15749;49.606;8.738;2022-10-03T02:31:58;12.87;;;5.23;;
28545;SDS011;15749;49.606;8.738;2022-10-03T02:35:19;26.00;;;5.67;;
28545;SDS011;15749;49.606;8.738;2022-10-03T02:38:33;6.97;;;3.40;;
28545;SDS011;15749;49.606;8.738;2022-10-03T02:41:41;17.50;;;3.93;;
28545;SDS011;15749;49.606;8.738;2022-10-03T02:45:14;13.83;;;5.10;;
28545;SDS011;15749;49.606;8.738;2022-10-03T02:48:53;4.43;;;3.60;;
28545;SDS011;15749;49.606;8.738;2022-10-03T02:52:06;4.73;;;3.40;;
28545;SDS011;15749;49.606;8.738;2022-10-03T02:55:27;14.43;;;3.70;;
28545;SDS011;15749;49.606;8.738;2022-10-03T02:58:54;18.20;;;4.30;;
28545;SDS011;15749;49.606;8.738;2022-10-03T03:06:15;11.13;;;3.47;;
28545;SDS011;15749;49.606;8.738;2022-10-03T03:17:11;3.60;;;3.30;;
28545;SDS011;15749;49.606;8.738;2022-10-03T03:20:19;8.97;;;3.53;;
28545;SDS011;15749;49.606;8.738;2022-10-03T03:30:19;14.57;;;2.90;;
28545;SDS011;15749;49.606;8.738;2022-10-03T03:33:11;12.17;;;3.40;;
28545;SDS011;15749;49.606;8.738;2022-10-03T03:36:09;3.80;;;3.23;;
28545;SDS011;15749;49.606;8.738;2022-10-03T03:39:12;3.03;;;2.83;;
28545;SDS011;15749;49.606;8.738;2022-10-03T03:42:36;2.93;;;2.73;;
28545;SDS011;15749;49.606;8.738;2022-10-03T03:49:01;14.60;;;3.13;;
28545;SDS011;15749;49.606;8.738;2022-10-03T03:52:10;49.43;;;4.13;;
28545;SDS011;15749;49.606;8.738;2022-10-03T03:58:34;11.63;;;3.23;;
28545;SDS011;15749;49.606;8.738;2022-10-03T04:01:31;20.23;;;3.20;;
28545;SDS011;15749;49.606;8.738;2022-10-03T04:04:44;28.40;;;3.40;;
28545;SDS011;15749;49.606;8.738;2022-10-03T04:07:52;51.03;;;4.30;;
28545;SDS011;15749;49.606;8.738;2022-10-03T04:11:10;10.50;;;2.63;;
28545;SDS011;15749;49.606;8.738;2022-10-03T04:17:27;26.87;;;2.20;;
28545;SDS011;15749;49.606;8.738;2022-10-03T04:20:48;38.77;;;2.50;;
28545;SDS011;15749;49.606;8.738;2022-10-03T04:24:17;11.00;;;2.20;;
28545;SDS011;15749;49.606;8.738;2022-10-03T04:27:43;9.23;;;1.63;;
28545;SDS011;15749;49.606;8.738;2022-10-03T04:31:14;9.53;;;1.97;;
28545;SDS011;15749;49.606;8.738;2022-10-03T04:34:20;4.00;;;1.50;;
28545;SDS011;15749;49.606;8.738;2022-10-03T04:37:25;12.13;;;1.90;;
28545;SDS011;15749;49.606;8.738;2022-10-03T04:40:29;37.97;;;3.30;;
28545;SDS011;15749;49.606;8.738;2022-10-03T04:43:30;6.83;;;2.90;;
28545;SDS011;15749;49.606;8.738;2022-10-03T04:46:30;8.80;;;3.30;;
28545;SDS011;15749;49.606;8.738;2022-10-03T04:49:28;2.73;;;2.53;;
28545;SDS011;15749;49.606;8.738;2022-10-03T04:52:25;2.80;;;2.50;;
28545;SDS011;15749;49.606;8.738;2022-10-03T04:55:25;4.37;;;3.10;;
28545;SDS011;15749;49.606;8.738;2022-10-03T04:58:24;3.50;;;3.20;;
28545;SDS011;15749;49.606;8.738;2022-10-03T05:01:22;5.63;;;2.73;;
28545;SDS011;15749;49.606;8.738;2022-10-03T05:04:17;11.63;;;3.27;;
28545;SDS011;15749;49.606;8.738;2022-10-03T05:07:13;7.80;;;3.63;;
28545;SDS011;15749;49.606;8.738;2022-10-03T05:10:16;14.17;;;3.73;;
28545;SDS011;15749;49.606;8.738;2022-10-03T05:13:28;14.80;;;3.60;;
28545;SDS011;15749;49.606;8.738;2022-10-03T05:16:30;45.00;;;4.37;;
28545;SDS011;15749;49.606;8.738;2022-10-03T05:19:33;2.70;;;2.50;;
28545;SDS011;15749;49.606;8.738;2022-10-03T05:22:36;4.23;;;2.33;;
28545;SDS011;15749;49.606;8.738;2022-10-03T05:25:34;15.00;;;2.97;;
28545;SDS011;15749;49.606;8.738;2022-10-03T05:28:34;13.67;;;2.47;;
28545;SDS011;15749;49.606;8.738;2022-10-03T05:31:33;26.93;;;2.67;;
28545;SDS011;15749;49.606;8.738;2022-10-03T05:34:37;43.10;;;3.53;;
28545;SDS011;15749;49.606;8.738;2022-10-03T05:37:49;9.53;;;2.20;;
28545;SDS011;15749;49.606;8.738;2022-10-03T05:41:17;62.87;;;4.67;;
28545;SDS011;15749;49.606;8.738;2022-10-03T05:44:14;22.27;;;2.30;;
28545;SDS011;15749;49.606;8.738;2022-10-03T05:47:06;5.63;;;2.03;;
28545;SDS011;15749;49.606;8.738;2022-10-03T05:50:34;19.37;;;3.27;;
28545;SDS011;15749;49.606;8.738;2022-10-03T05:54:12;15.67;;;2.37;;
28545;SDS011;15749;49.606;8.738;2022-10-03T05:57:34;14.47;;;2.10;;
28545;SDS011;15749;49.606;8.738;2022-10-03T06:07:22;17.60;;;3.23;;
28545;SDS011;15749;49.606;8.738;2022-10-03T06:13:12;7.27;;;2.87;;
28545;SDS011;15749;49.606;8.738;2022-10-03T06:15:55;5.10;;;3.30;;
28545;SDS011;15749;49.606;8.738;2022-10-03T06:18:35;10.00;;;3.50;;
28545;SDS011;15749;49.606;8.738;2022-10-03T06:25:04;15.87;;;2.90;;
28545;SDS011;15749;49.606;8.738;2022-10-03T06:28:36;15.93;;;3.03;;
28545;SDS011;15749;49.606;8.738;2022-10-03T06:38:19;38.40;;;3.77;;
28545;SDS011;15749;49.606;8.738;2022-10-03T06:41:28;24.17;;;3.43;;
28545;SDS011;15749;49.606;8.738;2022-10-03T06:44:39;8.20;;;2.30;;
28545;SDS011;15749;49.606;8.738;2022-10-03T06:48:01;13.90;;;2.10;;
28545;SDS011;15749;49.606;8.738;2022-10-03T06:51:09;7.90;;;2.77;;
28545;SDS011;15749;49.606;8.738;2022-10-03T06:54:06;16.00;;;2.40;;
28545;SDS011;15749;49.606;8.738;2022-10-03T07:00:20;12.63;;;2.10;;
28545;SDS011;15749;49.606;8.738;2022-10-03T07:06:10;33.67;;;2.63;;
28545;SDS011;15749;49.606;8.738;2022-10-03T07:12:24;32.47;;;3.00;;
28545;SDS011;15749;49.606;8.738;2022-10-03T07:15:38;22.37;;;3.33;;
28545;SDS011;15749;49.606;8.738;2022-10-03T07:19:00;39.60;;;3.33;;
28545;SDS011;15749;49.606;8.738;2022-10-03T07:22:23;29.70;;;3.70;;
28545;SDS011;15749;49.606;8.738;2022-10-03T07:25:46;22.43;;;2.90;;
28545;SDS011;15749;49.606;8.738;2022-10-03T07:29:03;15.13;;;2.80;;
28545;SDS011;15749;49.606;8.738;2022-10-03T07:32:19;32.07;;;3.23;;
28545;SDS011;15749;49.606;8.738;2022-10-03T07:35:06;5.90;;;2.50;;
28545;SDS011;15749;49.606;8.738;2022-10-03T07:38:34;29.07;;;3.80;;
28545;SDS011;15749;49.606;8.738;2022-10-03T07:41:29;8.87;;;3.30;;
28545;SDS011;15749;49.606;8.738;2022-10-03T07:44:36;10.53;;;2.93;;
28545;SDS011;15749;49.606;8.738;2022-10-03T07:47:53;19.23;;;3.70;;
28545;SDS011;15749;49.606;8.738;2022-10-03T07:50:56;7.23;;;3.70;;
28545;SDS011;15749;49.606;8.738;2022-10-03T07:57:04;8.63;;;4.27;;
28545;SDS011;15749;49.606;8.738;2022-10-03T08:06:14;5.63;;;4.53;;
28545;SDS011;15749;49.606;8.738;2022-10-03T08:12:31;7.57;;;4.50;;
28545;SDS011;15749;49.606;8.738;2022-10-03T08:15:17;6.43;;;5.13;;
28545;SDS011;15749;49.606;8.738;2022-10-03T08:18:02;6.67;;;5.13;;
28545;SDS011;15749;49.606;8.738;2022-10-03T08:20:54;8.03;;;6.50;;
28545;SDS011;15749;49.606;8.738;2022-10-03T08:23:42;8.63;;;6.53;;
28545;SDS011;15749;49.606;8.738;2022-10-03T08:26:44;8.43;;;6.10;;
28545;SDS011;15749;49.606;8.738;2022-10-03T08:29:50;7.37;;;6.43;;
28545;SDS011;15749;49.606;8.738;2022-10-03T08:32:36;7.10;;;6.40;;
28545;SDS011;15749;49.606;8.738;2022-10-03T08:35:30;8.97;;;7.53;;
28545;SDS011;15749;49.606;8.738;2022-10-03T08:38:54;10.63;;;6.93;;
28545;SDS011;15749;49.606;8.738;2022-10-03T08:44:55;9.57;;;7.13;;
28545;SDS011;15749;49.606;8.738;2022-10-03T08:54:43;8.67;;;5.80;;
28545;SDS011;15749;49.606;8.738;2022-10-03T08:57:52;11.57;;;6.80;;
28545;SDS011;15749;49.606;8.738;2022-10-03T09:01:00;10.43;;;6.60;;
28545;SDS011;15749;49.606;8.738;2022-10-03T09:03:59;9.53;;;6.23;;
28545;SDS011;15749;49.606;8.738;2022-10-03T09:07:11;8.67;;;6.20;;
28545;SDS011;15749;49.606;8.738;2022-10-03T09:16:42;9.70;;;6.13;;
28545;SDS011;15749;49.606;8.738;2022-10-03T09:19:28;8.50;;;5.30;;
28545;SDS011;15749;49.606;8.738;2022-10-03T09:22:41;20.53;;;6.07;;
28545;SDS011;15749;49.606;8.738;2022-10-03T09:25:41;9.17;;;5.83;;
28545;SDS011;15749;49.606;8.738;2022-10-03T09:32:06;7.67;;;5.03;;
28545;SDS011;15749;49.606;8.738;2022-10-03T09:35:38;6.80;;;4.10;;
28545;SDS011;15749;49.606;8.738;2022-10-03T09:45:34;7.07;;;3.90;;
28545;SDS011;15749;49.606;8.738;2022-10-03T09:49:03;13.43;;;3.37;;
28545;SDS011;15749;49.606;8.738;2022-10-03T09:52:08;3.97;;;3.17;;
28545;SDS011;15749;49.606;8.738;2022-10-03T09:55:04;5.67;;;3.43;;
28545;SDS011;15749;49.606;8.738;2022-10-03T09:58:03;9.27;;;3.70;;
28545;SDS011;15749;49.606;8.738;2022-10-03T10:01:10;4.10;;;3.37;;
28545;SDS011;15749;49.606;8.738;2022-10-03T10:10:57;4.57;;;2.30;;
28545;SDS011;15749;49.606;8.738;2022-10-03T10:13:57;3.90;;;2.67;;
28545;SDS011;15749;49.606;8.738;2022-10-03T10:17:11;3.60;;;2.10;;
28545;SDS011;15749;49.606;8.738;2022-10-03T10:23:56;5.63;;;2.63;;
28545;SDS011;15749;49.606;8.738;2022-10-03T10:26:55;21.63;;;2.70;;
28545;SDS011;15749;49.606;8.738;2022-10-03T10:30:12;99.80;;;5.83;;
28545;SDS011;15749;49.606;8.738;2022-10-03T10:36:52;25.50;;;3.27;;
28545;SDS011;15749;49.606;8.738;2022-10-03T10:40:43;3.57;;;2.40;;
28545;SDS011;15749;49.606;8.738;2022-10-03T10:47:44;199.50;;;10.93;;
28545;SDS011;15749;49.606;8.738;2022-10-03T10:54:36;297.80;;;17.90;;
28545;SDS011;15749;49.606;8.738;2022-10-03T11:05:37;4.77;;;2.83;;
28545;SDS011;15749;49.606;8.738;2022-10-03T11:09:00;3.10;;;2.80;;
28545;SDS011;15749;49.606;8.738;2022-10-03T11:12:14;2.30;;;2.10;;
28545;SDS011;15749;49.606;8.738;2022-10-03T11:22:30;2.93;;;2.07;;
28545;SDS011;15749;49.606;8.738;2022-10-03T11:25:38;5.80;;;2.57;;
28545;SDS011;15749;49.606;8.738;2022-10-03T11:32:28;4.47;;;2.50;;
28545;SDS011;15749;49.606;8.738;2022-10-03T11:35:41;5.63;;;2.57;;
28545;SDS011;15749;49.606;8.738;2022-10-03T11:38:40;3.83;;;2.40;;
28545;SDS011;15749;49.606;8.738;2022-10-03T11:41:20;15.37;;;2.73;;
28545;SDS011;15749;49.606;8.738;2022-10-03T11:44:11;6.33;;;2.53;;
28545;SDS011;15749;49.606;8.738;2022-10-03T11:50:10;187.73;;;10.70;;
28545;SDS011;15749;49.606;8.738;2022-10-03T11:53:06;27.87;;;3.33;;
28545;SDS011;15749;49.606;8.738;2022-10-03T11:55:44;4.13;;;2.53;;
28545;SDS011;15749;49.606;8.738;2022-10-03T12:01:49;4.50;;;2.80;;
28545;SDS011;15749;49.606;8.738;2022-10-03T12:04:32;4.27;;;2.30;;
28545;SDS011;15749;49.606;8.738;2022-10-03T12:07:14;71.67;;;6.00;;
28545;SDS011;15749;49.606;8.738;2022-10-03T12:10:29;3.83;;;2.57;;
28545;SDS011;15749;49.606;8.738;2022-10-03T12:13:08;4.60;;;2.40;;
28545;SDS011;15749;49.606;8.738;2022-10-03T12:15:45;4.63;;;2.50;;
28545;SDS011;15749;49.606;8.738;2022-10-03T12:18:19;12.03;;;2.60;;
28545;SDS011;15749;49.606;8.738;2022-10-03T12:21:08;5.83;;;2.90;;
28545;SDS011;15749;49.606;8.738;2022-10-03T12:26:42;3.97;;;2.07;;
28545;SDS011;15749;49.606;8.738;2022-10-03T12:29:19;3.67;;;2.00;;
28545;SDS011;15749;49.606;8.738;2022-10-03T12:32:00;2.87;;;2.27;;
28545;SDS011;15749;49.606;8.738;2022-10-03T12:34:48;4.73;;;2.13;;
28545;SDS011;15749;49.606;8.738;2022-10-03T12:37:31;4.33;;;2.30;;
28545;SDS011;15749;49.606;8.738;2022-10-03T12:40:17;2.90;;;1.80;;
28545;SDS011;15749;49.606;8.738;2022-10-03T12:42:58;4.23;;;1.60;;
28545;SDS011;15749;49.606;8.738;2022-10-03T12:45:38;2.97;;;1.40;;
28545;SDS011;15749;49.606;8.738;2022-10-03T12:48:25;2.87;;;1.83;;
28545;SDS011;15749;49.606;8.738;2022-10-03T12:51:14;7.60;;;1.80;;
28545;SDS011;15749;49.606;8.738;2022-10-03T12:53:56;5.10;;;1.90;;
28545;SDS011;15749;49.606;8.738;2022-10-03T12:56:41;3.10;;;1.90;;
28545;SDS011;15749;49.606;8.738;2022-10-03T12:59:17;25.60;;;3.10;;
28545;SDS011;15749;49.606;8.738;2022-10-03T13:04:59;2.90;;;2.00;;
28545;SDS011;15749;49.606;8.738;2022-10-03T13:07:59;9.57;;;2.27;;
28545;SDS011;15749;49.606;8.738;2022-10-03T13:10:36;9.53;;;2.13;;
28545;SDS011;15749;49.606;8.738;2022-10-03T13:13:17;6.03;;;2.00;;
28545;SDS011;15749;49.606;8.738;2022-10-03T13:15:57;3.03;;;1.70;;
28545;SDS011;15749;49.606;8.738;2022-10-03T13:18:47;3.13;;;1.83;;
28545;SDS011;15749;49.606;8.738;2022-10-03T13:21:26;2.70;;;1.47;;
28545;SDS011;15749;49.606;8.738;2022-10-03T13:24:22;28.43;;;2.37;;
28545;SDS011;15749;49.606;8.738;2022-10-03T13:27:02;10.53;;;1.50;;
28545;SDS011;15749;49.606;8.738;2022-10-03T13:29:50;2.70;;;1.47;;
28545;SDS011;15749;49.606;8.738;2022-10-03T13:32:31;17.77;;;2.60;;
28545;SDS011;15749;49.606;8.738;2022-10-03T13:35:05;33.00;;;3.20;;
28545;SDS011;15749;49.606;8.738;2022-10-03T13:38:23;4.10;;;1.80;;
28545;SDS011;15749;49.606;8.738;2022-10-03T13:41:30;3.93;;;1.60;;
28545;SDS011;15749;49.606;8.738;2022-10-03T13:44:12;6.60;;;1.83;;
28545;SDS011;15749;49.606;8.738;2022-10-03T13:46:49;2.27;;;1.60;;
28545;SDS011;15749;49.606;8.738;2022-10-03T13:49:24;39.73;;;2.83;;
28545;SDS011;15749;49.606;8.738;2022-10-03T13:52:00;3.47;;;2.10;;
28545;SDS011;15749;49.606;8.738;2022-10-03T13:54:46;4.27;;;1.80;;
28545;SDS011;15749;49.606;8.738;2022-10-03T13:57:46;16.03;;;2.40;;
28545;SDS011;15749;49.606;8.738;2022-10-03T14:00:39;20.17;;;2.70;;
28545;SDS011;15749;49.606;8.738;2022-10-03T14:03:22;4.03;;;1.87;;
28545;SDS011;15749;49.606;8.738;2022-10-03T14:06:09;6.43;;;2.20;;
28545;SDS011;15749;49.606;8.738;2022-10-03T14:08:53;62.77;;;4.20;;
28545;SDS011;15749;49.606;8.738;2022-10-03T14:11:40;13.00;;;2.47;;
28545;SDS011;15749;49.606;8.738;2022-10-03T14:14:33;173.23;;;9.47;;
28545;SDS011;15749;49.606;8.738;2022-10-03T14:17:18;6.07;;;1.90;;
28545;SDS011;15749;49.606;8.738;2022-10-03T14:20:00;115.60;;;6.87;;
28545;SDS011;15749;49.606;8.738;2022-10-03T14:22:49;3.80;;;1.90;;
28545;SDS011;15749;49.606;8.738;2022-10-03T14:25:35;3.10;;;1.70;;
28545;SDS011;15749;49.606;8.738;2022-10-03T14:28:13;2.80;;;1.80;;
28545;SDS011;15749;49.606;8.738;2022-10-03T14:30:51;12.23;;;2.20;;
28545;SDS011;15749;49.606;8.738;2022-10-03T14:33:35;56.27;;;4.23;;
28545;SDS011;15749;49.606;8.738;2022-10-03T14:36:17;39.30;;;3.60;;
28545;SDS011;15749;49.606;8.738;2022-10-03T14:39:03;40.53;;;3.13;;
28545;SDS011;15749;49.606;8.738;2022-10-03T14:45:02;53.37;;;3.87;;
28545;SDS011;15749;49.606;8.738;2022-10-03T14:47:36;4.97;;;2.50;;
28545;SDS011;15749;49.606;8.738;2022-10-03T14:50:13;10.60;;;2.53;;
28545;SDS011;15749;49.606;8.738;2022-10-03T14:52:46;4.13;;;2.30;;
28545;SDS011;15749;49.606;8.738;2022-10-03T14:55:29;20.27;;;3.00;;
28545;SDS011;15749;49.606;8.738;2022-10-03T14:58:02;4.03;;;2.10;;
28545;SDS011;15749;49.606;8.738;2022-10-03T15:00:40;3.90;;;2.20;;
28545;SDS011;15749;49.606;8.738;2022-10-03T15:03:17;4.87;;;2.30;;
28545;SDS011;15749;49.606;8.738;2022-10-03T15:05:50;5.13;;;2.50;;
28545;SDS011;15749;49.606;8.738;2022-10-03T15:08:32;2.40;;;1.90;;
28545;SDS011;15749;49.606;8.738;2022-10-03T15:11:06;5.33;;;2.33;;
28545;SDS011;15749;49.606;8.738;2022-10-03T15:13:37;3.40;;;2.40;;
28545;SDS011;15749;49.606;8.738;2022-10-03T15:16:14;17.50;;;3.00;;
28545;SDS011;15749;49.606;8.738;2022-10-03T15:18:49;4.00;;;2.23;;
28545;SDS011;15749;49.606;8.738;2022-10-03T15:21:22;10.13;;;2.40;;
28545;SDS011;15749;49.606;8.738;2022-10-03T15:23:54;3.37;;;1.80;;
28545;SDS011;15749;49.606;8.738;2022-10-03T15:26:26;2.50;;;1.93;;
28545;SDS011;15749;49.606;8.738;2022-10-03T15:28:59;315.57;;;16.53;;
28545;SDS011;15749;49.606;8.738;2022-10-03T15:31:34;11.20;;;2.70;;
28545;SDS011;15749;49.606;8.738;2022-10-03T15:34:11;119.90;;;6.43;;
28545;SDS011;15749;49.606;8.738;2022-10-03T15:36:46;3.60;;;2.40;;
28545;SDS011;15749;49.606;8.738;2022-10-03T15:39:18;22.67;;;3.03;;
28545;SDS011;15749;49.606;8.738;2022-10-03T15:41:53;3.23;;;2.53;;
28545;SDS011;15749;49.606;8.738;2022-10-03T15:47:29;8.37;;;2.30;;
28545;SDS011;15749;49.606;8.738;2022-10-03T15:50:02;4.87;;;2.40;;
28545;SDS011;15749;49.606;8.738;2022-10-03T15:52:36;47.37;;;4.00;;
28545;SDS011;15749;49.606;8.738;2022-10-03T15:55:12;4.93;;;2.20;;
28545;SDS011;15749;49.606;8.738;2022-10-03T15:57:46;3.10;;;2.13;;
28545;SDS011;15749;49.606;8.738;2022-10-03T16:00:20;242.20;;;11.07;;
28545;SDS011;15749;49.606;8.738;2022-10-03T16:02:55;716.47;;;31.50;;
28545;SDS011;15749;49.606;8.738;2022-10-03T16:05:35;114.97;;;6.70;;
28545;SDS011;15749;49.606;8.738;2022-10-03T16:08:11;4.83;;;3.30;;
28545;SDS011;15749;49.606;8.738;2022-10-03T16:10:49;181.13;;;8.50;;
28545;SDS011;15749;49.606;8.738;2022-10-03T16:13:34;5.40;;;2.97;;
28545;SDS011;15749;49.606;8.738;2022-10-03T16:16:11;50.73;;;4.40;;
28545;SDS011;15749;49.606;8.738;2022-10-03T16:18:57;4.77;;;2.50;;
28545;SDS011;15749;49.606;8.738;2022-10-03T16:21:47;83.63;;;4.93;;
28545;SDS011;15749;49.606;8.738;2022-10-03T16:24:26;8.33;;;3.03;;
28545;SDS011;15749;49.606;8.738;2022-10-03T16:27:04;104.80;;;6.30;;
28545;SDS011;15749;49.606;8.738;2022-10-03T16:29:43;16.50;;;4.70;;
28545;SDS011;15749;49.606;8.738;2022-10-03T16:32:22;88.63;;;7.57;;
28545;SDS011;15749;49.606;8.738;2022-10-03T16:34:57;18.37;;;5.13;;
28545;SDS011;15749;49.606;8.738;2022-10-03T16:37:30;190.47;;;11.83;;
28545;SDS011;15749;49.606;8.738;2022-10-03T16:40:06;8.90;;;3.67;;
28545;SDS011;15749;49.606;8.738;2022-10-03T16:42:48;670.97;;;30.23;;
28545;SDS011;15749;49.606;8.738;2022-10-03T16:45:23;1729.33;;;85.83;;
28545;SDS011;15749;49.606;8.738;2022-10-03T16:47:58;1355.83;;;66.10;;
28545;SDS011;15749;49.606;8.738;2022-10-03T16:50:51;613.40;;;29.03;;
28545;SDS011;15749;49.606;8.738;2022-10-03T16:53:21;109.30;;;7.23;;
28545;SDS011;15749;49.606;8.738;2022-10-03T16:55:51;48.13;;;4.80;;
28545;SDS011;15749;49.606;8.738;2022-10-03T16:58:26;208.10;;;10.00;;
28545;SDS011;15749;49.606;8.738;2022-10-03T17:00:59;12.37;;;2.70;;
28545;SDS011;15749;49.606;8.738;2022-10-03T17:03:53;5.43;;;2.30;;
28545;SDS011;15749;49.606;8.738;2022-10-03T17:06:30;5.13;;;2.50;;
28545;SDS011;15749;49.606;8.738;2022-10-03T17:09:03;4.27;;;2.43;;
28545;SDS011;15749;49.606;8.738;2022-10-03T17:11:41;19.73;;;3.60;;
28545;SDS011;15749;49.606;8.738;2022-10-03T17:14:16;5.47;;;3.67;;
28545;SDS011;15749;49.606;8.738;2022-10-03T17:16:49;5.50;;;4.10;;
28545;SDS011;15749;49.606;8.738;2022-10-03T17:19:30;125.50;;;8.47;;
28545;SDS011;15749;49.606;8.738;2022-10-03T17:22:06;3.77;;;2.70;;
28545;SDS011;15749;49.606;8.738;2022-10-03T17:24:44;3.67;;;3.00;;
28545;SDS011;15749;49.606;8.738;2022-10-03T17:27:18;36.67;;;4.83;;
28545;SDS011;15749;49.606;8.738;2022-10-03T17:29:53;4.27;;;2.70;;
28545;SDS011;15749;49.606;8.738;2022-10-03T17:32:28;5.43;;;2.70;;
28545;SDS011;15749;49.606;8.738;2022-10-03T17:35:06;12.97;;;3.47;;
28545;SDS011;15749;49.606;8.738;2022-10-03T17:37:54;5.40;;;3.13;;
28545;SDS011;15749;49.606;8.738;2022-10-03T17:41:11;4.47;;;2.73;;
28545;SDS011;15749;49.606;8.738;2022-10-03T17:43:46;4.37;;;2.77;;
28545;SDS011;15749;49.606;8.738;2022-10-03T17:46:28;21.20;;;4.20;;
28545;SDS011;15749;49.606;8.738;2022-10-03T17:49:16;7.53;;;4.53;;
28545;SDS011;15749;49.606;8.738;2022-10-03T17:51:51;16.90;;;5.83;;
28545;SDS011;15749;49.606;8.738;2022-10-03T17:54:24;17.97;;;15.57;;
28545;SDS011;15749;49.606;8.738;2022-10-03T17:56:58;26.13;;;16.60;;
28545;SDS011;15749;49.606;8.738;2022-10-03T17:59:41;11.13;;;8.40;;
28545;SDS011;15749;49.606;8.738;2022-10-03T18:02:18;9.63;;;5.43;;
28545;SDS011;15749;49.606;8.738;2022-10-03T18:04:54;7.43;;;4.30;;
28545;SDS011;15749;49.606;8.738;2022-10-03T18:07:35;4.70;;;3.33;;
28545;SDS011;15749;49.606;8.738;2022-10-03T18:10:06;4.80;;;3.10;;
28545;SDS011;15749;49.606;8.738;2022-10-03T18:12:49;5.97;;;3.33;;
28545;SDS011;15749;49.606;8.738;2022-10-03T18:18:51;4.40;;;2.70;;
28545;SDS011;15749;49.606;8.738;2022-10-03T18:21:53;4.93;;;3.03;;
28545;SDS011;15749;49.606;8.738;2022-10-03T18:24:34;45.93;;;4.43;;
28545;SDS011;15749;49.606;8.738;2022-10-03T18:27:28;3.53;;;2.83;;
28545;SDS011;15749;49.606;8.738;2022-10-03T18:30:43;53.57;;;4.73;;
28545;SDS011;15749;49.606;8.738;2022-10-03T18:33:19;29.33;;;3.60;;
28545;SDS011;15749;49.606;8.738;2022-10-03T18:35:58;59.33;;;4.97;;
28545;SDS011;15749;49.606;8.738;2022-10-03T18:38:38;70.57;;;5.93;;
28545;SDS011;15749;49.606;8.738;2022-10-03T18:41:11;34.13;;;4.70;;
28545;SDS011;15749;49.606;8.738;2022-10-03T18:43:44;25.97;;;4.10;;
28545;SDS011;15749;49.606;8.738;2022-10-03T18:46:25;5.80;;;3.63;;
28545;SDS011;15749;49.606;8.738;2022-10-03T18:49:00;4.67;;;3.97;;
28545;SDS011;15749;49.606;8.738;2022-10-03T18:52:03;11.80;;;3.57;;
28545;SDS011;15749;49.606;8.738;2022-10-03T18:54:43;36.07;;;4.47;;
28545;SDS011;15749;49.606;8.738;2022-10-03T18:57:35;187.67;;;10.60;;
28545;SDS011;15749;49.606;8.738;2022-10-03T19:00:23;5.63;;;3.93;;
28545;SDS011;15749;49.606;8.738;2022-10-03T19:03:06;16.43;;;4.10;;
28545;SDS011;15749;49.606;8.738;2022-10-03T19:08:45;6.27;;;5.20;;
28545;SDS011;15749;49.606;8.738;2022-10-03T19:11:55;10.10;;;4.87;;
28545;SDS011;15749;49.606;8.738;2022-10-03T19:15:44;9.17;;;4.30;;
28545;SDS011;15749;49.606;8.738;2022-10-03T19:19:05;9.13;;;4.30;;
28545;SDS011;15749;49.606;8.738;2022-10-03T19:21:45;6.57;;;4.37;;
28545;SDS011;15749;49.606;8.738;2022-10-03T19:25:15;4.97;;;4.40;;
28545;SDS011;15749;49.606;8.738;2022-10-03T19:28:07;4.93;;;4.13;;
28545;SDS011;15749;49.606;8.738;2022-10-03T19:35:36;4.47;;;3.67;;
28545;SDS011;15749;49.606;8.738;2022-10-03T19:38:25;24.57;;;5.53;;
28545;SDS011;15749;49.606;8.738;2022-10-03T19:41:45;17.17;;;4.27;;
28545;SDS011;15749;49.606;8.738;2022-10-03T19:54:44;5.87;;;4.43;;
28545;SDS011;15749;49.606;8.738;2022-10-03T19:57:57;36.10;;;5.30;;
28545;SDS011;15749;49.606;8.738;2022-10-03T20:15:06;7.37;;;4.07;;
28545;SDS011;15749;49.606;8.738;2022-10-03T20:18:16;4.80;;;4.33;;
28545;SDS011;15749;49.606;8.738;2022-10-03T20:21:24;17.03;;;4.07;;
28545;SDS011;15749;49.606;8.738;2022-10-03T20:29:23;10.20;;;4.17;;
28545;SDS011;15749;49.606;8.738;2022-10-03T20:32:36;178.63;;;9.97;;
28545;SDS011;15749;49.606;8.738;2022-10-03T20:35:38;39.20;;;5.50;;
28545;SDS011;15749;49.606;8.738;2022-10-03T20:39:29;6.50;;;3.83;;
28545;SDS011;15749;49.606;8.738;2022-10-03T20:42:53;7.57;;;4.07;;
28545;SDS011;15749;49.606;8.738;2022-10-03T20:46:46;9.43;;;3.63;;
28545;SDS011;15749;49.606;8.738;2022-10-03T20:50:06;4.53;;;3.93;;